Hatsu Excel — VSXV3 — position and weather

sailwx.info

Track history (hours):
 
Tides and Currents Weather Stations Pressure Air Temp Water Temp Dewpoint Dewpoint Depression Visibility Wind Speed Wind Dir Waves Ship Positions

Hatsu Excel

Last reported at 2016-May-28 22:26 UTC. Time now 2016-May-31 23:51 UTC.
Position N 33°54' E 134°55'.

Type: Ship (hazmat cat D). MMSI: 235479000.

Date/timePositionNaut miles runAvg speedWind from/ knotsBaromVisibWave heightAir tempDewpointWater temp
2016-May-28 22:26N 33°54' E 134°55'1214.1
2016-May-28 21:34N 34°07' E 134°56'1413.7
2016-May-28 20:33N 34°20' E 134°59'1818.1
2016-May-28 19:34N 34°33' E 135°15'10 7.2
2016-May-28 18:12N 34°39' E 135°24'0 0.0
2016-May-28 16:31N 34°39' E 135°24'0 0.0
2016-May-28 15:33N 34°39' E 135°24'0 0.0
2016-May-28 14:29N 34°39' E 135°24'0 0.0
2016-May-28 13:23N 34°39' E 135°24'0 0.1
2016-May-28 12:33N 34°39' E 135°24'8 8.0
2016-May-28 11:33N 34°33' E 135°17'1818.1
2016-May-28 10:33N 34°20' E 135°01'1312.9
2016-May-28 09:33N 34°08' E 134°59'1513.8
2016-May-28 08:30N 33°53' E 134°58'21014.7
2016-May-27 18:13N 34°33' E 139°08'2916.5
2016-May-27 16:27N 34°51' E 139°36'1617.6
2016-May-27 15:33N 35°06' E 139°43'1212.2
2016-May-27 14:33N 35°18' E 139°44'1212.5
2016-May-27 13:33N 35°29' E 139°50'8 7.8
2016-May-27 12:31N 35°37' E 139°47'0 0.0
2016-May-27 11:31N 35°37' E 139°47'0 0.0
2016-May-27 10:31N 35°37' E 139°47'0 0.0
2016-May-27 09:32N 35°37' E 139°47'0 0.0
2016-May-27 08:32N 35°37' E 139°47'0 0.0
2016-May-27 07:32N 35°37' E 139°47'0 0.0
2016-May-27 06:33N 35°37' E 139°47'0 0.0
2016-May-27 05:31N 35°37' E 139°47'0 0.0
2016-May-27 04:32N 35°37' E 139°47'0 0.0
2016-May-27 03:32N 35°37' E 139°47'0 0.0
2016-May-27 02:32N 35°37' E 139°47'0 0.0
2016-May-27 01:32N 35°37' E 139°47'0 0.0
2016-May-27 00:32N 35°37' E 139°47'0 0.0
2016-May-26 23:32N 35°37' E 139°47'2 2.4
2016-May-26 22:33N 35°35' E 139°48'9 8.9
2016-May-26 21:33N 35°26' E 139°48'1111.0
2016-May-26 20:33N 35°15' E 139°47'10 9.9
2016-May-26 19:33N 35°05' E 139°45'1514.9
2016-May-26 18:32N 34°50' E 139°46'1815.1
2016-May-26 17:21N 34°53' E 140°07'1316.5
2016-May-26 16:33N 35°01' E 140°20'1716.6
2016-May-26 15:33N 35°11' E 140°36'1616.1
2016-May-26 14:33N 35°21' E 140°51'  
Track history (hours):
 
Tides and Currents Weather Stations Pressure Air Temp Water Temp Dewpoint Dewpoint Depression Visibility Wind Speed Wind Dir Waves Ship Positions

Hatsu Excel

Last reported at 2016-May-28 22:26 UTC. Time now 2016-May-31 23:51 UTC.
Position N 33°54' E 134°55'.

Type: Ship (hazmat cat D). MMSI: 235479000.

Date/timePositionNaut miles runAvg speedWind from/ knotsBaromVisibWave heightAir tempDewpointWater temp
2016-May-28 22:26N 33°54' E 134°55'1214.1
2016-May-28 21:34N 34°07' E 134°56'1413.7
2016-May-28 20:33N 34°20' E 134°59'1818.1
2016-May-28 19:34N 34°33' E 135°15'10 7.2
2016-May-28 18:12N 34°39' E 135°24'0 0.0
2016-May-28 16:31N 34°39' E 135°24'0 0.0
2016-May-28 15:33N 34°39' E 135°24'0 0.0
2016-May-28 14:29N 34°39' E 135°24'0 0.0
2016-May-28 13:23N 34°39' E 135°24'0 0.1
2016-May-28 12:33N 34°39' E 135°24'8 8.0
2016-May-28 11:33N 34°33' E 135°17'1818.1
2016-May-28 10:33N 34°20' E 135°01'1312.9
2016-May-28 09:33N 34°08' E 134°59'1513.8
2016-May-28 08:30N 33°53' E 134°58'21014.7
2016-May-27 18:13N 34°33' E 139°08'2916.5
2016-May-27 16:27N 34°51' E 139°36'1617.6
2016-May-27 15:33N 35°06' E 139°43'1212.2
2016-May-27 14:33N 35°18' E 139°44'1212.5
2016-May-27 13:33N 35°29' E 139°50'8 7.8
2016-May-27 12:31N 35°37' E 139°47'0 0.0
2016-May-27 11:31N 35°37' E 139°47'0 0.0
2016-May-27 10:31N 35°37' E 139°47'0 0.0
2016-May-27 09:32N 35°37' E 139°47'0 0.0
2016-May-27 08:32N 35°37' E 139°47'0 0.0
2016-May-27 07:32N 35°37' E 139°47'0 0.0
2016-May-27 06:33N 35°37' E 139°47'0 0.0
2016-May-27 05:31N 35°37' E 139°47'0 0.0
2016-May-27 04:32N 35°37' E 139°47'0 0.0
2016-May-27 03:32N 35°37' E 139°47'0 0.0
2016-May-27 02:32N 35°37' E 139°47'0 0.0
2016-May-27 01:32N 35°37' E 139°47'0 0.0
2016-May-27 00:32N 35°37' E 139°47'0 0.0
2016-May-26 23:32N 35°37' E 139°47'2 2.4
2016-May-26 22:33N 35°35' E 139°48'9 8.9
2016-May-26 21:33N 35°26' E 139°48'1111.0
2016-May-26 20:33N 35°15' E 139°47'10 9.9
2016-May-26 19:33N 35°05' E 139°45'1514.9
2016-May-26 18:32N 34°50' E 139°46'1815.1
2016-May-26 17:21N 34°53' E 140°07'1316.5
2016-May-26 16:33N 35°01' E 140°20'1716.6
2016-May-26 15:33N 35°11' E 140°36'1616.1
2016-May-26 14:33N 35°21' E 140°51'  

Dump ship's entire track history